createdAt,value
2023-05-01T00:01:53.254Z,7.57
2023-05-01T00:04:22.383Z,8.87
2023-05-01T00:06:50.683Z,7.90
2023-05-01T00:09:19.167Z,9.20
2023-05-01T00:11:47.277Z,8.73
2023-05-01T00:14:15.317Z,8.80
2023-05-01T00:16:46.192Z,6.87
2023-05-01T00:19:18.231Z,10.90
2023-05-01T00:21:47.933Z,12.40
2023-05-01T00:24:16.489Z,9.57
2023-05-01T00:26:45.024Z,7.93
2023-05-01T00:29:13.108Z,8.73
2023-05-01T00:31:42.558Z,10.70
2023-05-01T00:34:12.683Z,7.37
2023-05-01T00:36:40.990Z,7.93
2023-05-01T00:39:09.087Z,9.03
2023-05-01T00:41:37.321Z,8.77
2023-05-01T00:44:05.798Z,8.10
2023-05-01T00:46:35.999Z,8.27
2023-05-01T00:49:05.165Z,8.63
2023-05-01T00:51:35.199Z,8.13
2023-05-01T00:54:04.557Z,9.27
2023-05-01T00:56:33.009Z,10.77
2023-05-01T00:59:01.859Z,8.73
2023-05-01T01:01:30.332Z,7.87
2023-05-01T01:03:58.478Z,8.03
2023-05-01T01:06:43.812Z,9.47
2023-05-01T01:09:29.722Z,8.93
2023-05-01T01:12:10.468Z,13.07
2023-05-01T01:14:49.477Z,9.27
2023-05-01T01:17:31.680Z,9.03
2023-05-01T01:20:34.048Z,8.67
2023-05-01T01:23:36.104Z,7.87
2023-05-01T01:26:29.330Z,9.00
2023-05-01T01:29:22.915Z,6.87
2023-05-01T01:32:08.927Z,10.33
2023-05-01T01:34:46.082Z,10.43
2023-05-01T01:37:24.853Z,8.67
2023-05-01T01:40:02.298Z,8.03
2023-05-01T01:42:37.480Z,7.77
2023-05-01T01:45:14.567Z,8.20
2023-05-01T01:47:45.432Z,7.83
2023-05-01T01:50:18.339Z,8.23
2023-05-01T01:52:50.385Z,8.57
2023-05-01T01:55:23.789Z,9.23
2023-05-01T01:57:53.528Z,10.50
2023-05-01T02:00:23.694Z,9.17
2023-05-01T02:02:54.653Z,10.20
2023-05-01T02:05:26.912Z,6.53
2023-05-01T02:07:57.356Z,7.07
2023-05-01T02:10:28.671Z,7.00
2023-05-01T02:12:59.208Z,9.03
2023-05-01T02:15:29.515Z,9.73
2023-05-01T02:17:59.237Z,9.47
2023-05-01T02:20:30.286Z,7.53
2023-05-01T02:23:00.277Z,8.53
2023-05-01T02:25:32.758Z,9.37
2023-05-01T02:28:04.909Z,9.53
2023-05-01T02:30:33.170Z,8.90
2023-05-01T02:33:01.282Z,11.23
2023-05-01T02:35:30.707Z,7.73
2023-05-01T02:37:59.020Z,9.13
2023-05-01T02:40:28.629Z,10.50
2023-05-01T02:42:56.807Z,9.60
2023-05-01T02:45:26.989Z,9.77
2023-05-01T02:48:00.644Z,8.73
2023-05-01T02:50:31.023Z,10.73
2023-05-01T02:53:02.309Z,11.50
2023-05-01T02:55:33.076Z,7.20
2023-05-01T02:58:02.582Z,8.37
2023-05-01T03:00:32.478Z,7.33
2023-05-01T03:03:03.868Z,8.73
2023-05-01T03:05:41.547Z,12.77
2023-05-01T03:08:09.961Z,7.87
2023-05-01T03:10:40.648Z,8.00
2023-05-01T03:13:08.770Z,8.37
2023-05-01T03:15:36.829Z,10.17
2023-05-01T03:18:05.362Z,9.63
2023-05-01T03:20:34.888Z,9.43
2023-05-01T03:23:03.220Z,9.97
2023-05-01T03:25:31.329Z,10.47
2023-05-01T03:27:59.440Z,9.73
2023-05-01T03:30:27.443Z,11.13
2023-05-01T03:32:56.289Z,10.03
2023-05-01T03:35:24.362Z,8.10
2023-05-01T03:37:53.906Z,9.87
2023-05-01T03:40:22.029Z,11.20
2023-05-01T03:42:50.212Z,8.80
2023-05-01T03:45:18.459Z,12.43
2023-05-01T03:47:46.606Z,9.93
2023-05-01T03:50:14.726Z,8.77
2023-05-01T03:52:42.962Z,9.93
2023-05-01T03:55:12.544Z,11.77
2023-05-01T03:57:41.850Z,8.27
2023-05-01T04:00:12.010Z,8.97
2023-05-01T04:02:40.215Z,11.67
2023-05-01T04:05:09.274Z,11.93
2023-05-01T04:07:37.613Z,8.33
2023-05-01T04:10:07.220Z,8.93
2023-05-01T04:12:36.722Z,14.87
2023-05-01T04:15:05.217Z,13.33
2023-05-01T04:17:33.378Z,10.97
2023-05-01T04:20:01.683Z,11.87
2023-05-01T04:22:30.218Z,12.17
2023-05-01T04:24:58.331Z,13.33
2023-05-01T04:27:26.649Z,10.03
2023-05-01T04:29:56.600Z,10.13
2023-05-01T04:32:24.889Z,11.03
2023-05-01T04:34:53.448Z,14.23
2023-05-01T04:37:21.485Z,16.13
2023-05-01T04:39:50.857Z,13.07
2023-05-01T04:42:18.943Z,13.13
2023-05-01T04:44:47.338Z,12.67
2023-05-01T04:47:16.756Z,9.77
2023-05-01T04:49:44.779Z,15.10
2023-05-01T04:52:13.093Z,10.17
2023-05-01T04:54:41.230Z,11.43
2023-05-01T04:57:09.297Z,9.63
2023-05-01T04:59:37.684Z,12.60
2023-05-01T05:02:06.015Z,13.27
2023-05-01T05:04:35.540Z,11.80
2023-05-01T05:07:03.588Z,10.70
2023-05-01T05:09:31.650Z,9.87
2023-05-01T05:11:59.704Z,11.53
2023-05-01T05:14:27.800Z,10.00
2023-05-01T05:16:56.367Z,12.60
2023-05-01T05:19:24.517Z,11.93
2023-05-01T05:21:53.961Z,12.03
2023-05-01T05:24:22.006Z,10.90
2023-05-01T05:26:50.582Z,13.03
2023-05-01T05:29:18.680Z,12.70
2023-05-01T05:31:47.301Z,10.30
2023-05-01T05:34:15.660Z,12.57
2023-05-01T05:36:43.863Z,13.30
2023-05-01T05:39:13.806Z,12.07
2023-05-01T05:41:41.862Z,15.60
2023-05-01T05:44:09.890Z,9.73
2023-05-01T05:46:38.006Z,10.50
2023-05-01T05:49:06.089Z,10.00
2023-05-01T05:51:34.141Z,13.47
2023-05-01T05:54:02.194Z,10.70
2023-05-01T05:56:31.612Z,16.33
2023-05-01T05:59:03.337Z,11.97
2023-05-01T06:01:32.316Z,14.07
2023-05-01T06:04:00.907Z,12.87
2023-05-01T06:06:29.193Z,12.33
2023-05-01T06:08:57.256Z,10.17
2023-05-01T06:11:26.007Z,11.60
2023-05-01T06:13:56.605Z,11.37
2023-05-01T06:16:25.557Z,10.50
2023-05-01T06:18:53.740Z,13.43
2023-05-01T06:21:21.909Z,9.97
2023-05-01T06:23:50.105Z,13.07
2023-05-01T06:26:18.154Z,8.37
2023-05-01T06:28:46.228Z,12.57
2023-05-01T06:31:15.691Z,12.20
2023-05-01T06:33:43.777Z,11.90
2023-05-01T06:36:11.812Z,11.97
2023-05-01T06:38:40.498Z,11.40
2023-05-01T06:41:08.668Z,9.57
2023-05-01T06:43:36.693Z,10.10
2023-05-01T06:46:05.089Z,10.67
2023-05-01T06:48:34.456Z,12.30
2023-05-01T06:51:02.556Z,11.23
2023-05-01T06:53:30.637Z,11.97
2023-05-01T06:55:58.790Z,12.00
2023-05-01T06:58:26.913Z,11.13
2023-05-01T07:00:55.238Z,9.90
2023-05-01T07:03:23.430Z,14.03
2023-05-01T07:05:52.907Z,14.37
2023-05-01T07:08:21.385Z,11.00
2023-05-01T07:10:50.432Z,11.33
2023-05-01T07:13:19.441Z,12.60
2023-05-01T07:15:48.754Z,13.33
2023-05-01T07:18:17.124Z,9.27
2023-05-01T07:20:45.573Z,14.90
2023-05-01T07:23:15.014Z,12.30
2023-05-01T07:25:44.301Z,10.93
2023-05-01T07:28:12.481Z,10.80
2023-05-01T07:30:41.374Z,10.87
2023-05-01T07:33:09.501Z,9.87
2023-05-01T07:35:37.619Z,13.47
2023-05-01T07:38:05.705Z,10.13
2023-05-01T07:40:36.594Z,14.60
2023-05-01T07:43:04.943Z,13.37
2023-05-01T07:45:33.058Z,9.90
2023-05-01T07:48:01.286Z,10.67
2023-05-01T07:50:29.429Z,11.40
2023-05-01T07:52:57.651Z,11.90
2023-05-01T07:55:25.994Z,9.37
2023-05-01T07:57:56.092Z,9.20
2023-05-01T08:00:24.514Z,8.77
2023-05-01T08:02:53.073Z,12.40
2023-05-01T08:05:21.354Z,11.20
2023-05-01T08:07:49.375Z,10.03
2023-05-01T08:10:17.662Z,10.37
2023-05-01T08:12:45.898Z,10.03
2023-05-01T08:15:15.585Z,10.00
2023-05-01T08:17:43.634Z,11.23
2023-05-01T08:20:13.993Z,10.30
2023-05-01T08:22:42.124Z,8.93
2023-05-01T08:25:10.319Z,8.23
2023-05-01T08:27:38.569Z,11.13
2023-05-01T08:30:08.669Z,9.37
2023-05-01T08:32:38.138Z,10.13
2023-05-01T08:35:07.333Z,8.57
2023-05-01T08:37:35.610Z,9.10
2023-05-01T08:40:08.311Z,9.13
2023-05-01T08:42:38.775Z,8.97
2023-05-01T08:45:10.044Z,8.10
2023-05-01T08:47:41.439Z,8.17
2023-05-01T08:50:12.447Z,7.17
2023-05-01T08:52:43.395Z,8.00
2023-05-01T08:55:15.213Z,8.47
2023-05-01T08:57:47.254Z,10.33
2023-05-01T09:00:20.516Z,6.30
2023-05-01T09:02:52.430Z,10.53
2023-05-01T09:05:21.975Z,7.73
2023-05-01T09:07:50.187Z,8.27
2023-05-01T09:10:19.649Z,7.10
2023-05-01T09:12:56.298Z,9.00
2023-05-01T09:15:26.934Z,7.30
2023-05-01T09:17:58.746Z,7.47
2023-05-01T09:20:29.594Z,8.50
2023-05-01T09:22:58.295Z,6.57
2023-05-01T09:25:26.372Z,8.17
2023-05-01T09:27:56.959Z,7.00
2023-05-01T09:30:33.594Z,8.63
2023-05-01T09:33:14.341Z,6.77
2023-05-01T09:35:54.250Z,9.00
2023-05-01T09:38:25.379Z,7.30
2023-05-01T09:40:57.159Z,7.83
2023-05-01T09:43:29.795Z,6.60
2023-05-01T09:46:03.714Z,6.73
2023-05-01T09:48:35.809Z,9.10
2023-05-01T09:51:22.754Z,7.73
2023-05-01T09:53:52.258Z,8.33
2023-05-01T09:56:21.624Z,6.93
2023-05-01T09:58:51.649Z,6.80
2023-05-01T10:01:20.500Z,6.47
2023-05-01T10:03:56.937Z,7.00
2023-05-01T10:06:29.542Z,7.10
2023-05-01T10:08:57.860Z,7.50
2023-05-01T10:11:27.137Z,6.63
2023-05-01T10:14:13.322Z,14.20
2023-05-01T10:16:41.524Z,6.93
2023-05-01T10:19:12.587Z,5.73
2023-05-01T10:21:40.796Z,7.10
2023-05-01T10:24:10.069Z,8.93
2023-05-01T10:26:38.869Z,5.67
2023-05-01T10:29:07.140Z,6.23
2023-05-01T10:31:35.776Z,6.10
2023-05-01T10:34:05.241Z,6.83
2023-05-01T10:36:39.468Z,7.33
2023-05-01T10:39:08.073Z,7.03
2023-05-01T10:42:11.233Z,6.73
2023-05-01T10:44:39.592Z,5.90
2023-05-01T10:47:47.418Z,6.80
2023-05-01T10:50:16.447Z,5.47
2023-05-01T10:53:23.655Z,6.73
2023-05-01T10:55:51.995Z,6.93
2023-05-01T10:58:58.748Z,5.50
2023-05-01T11:01:36.552Z,5.73
2023-05-01T11:04:08.197Z,4.57
2023-05-01T11:06:38.321Z,6.50
2023-05-01T11:09:39.248Z,5.50
2023-05-01T11:12:08.719Z,7.03
2023-05-01T11:15:07.834Z,5.83
2023-05-01T11:17:50.306Z,4.97
2023-05-01T11:20:50.320Z,5.40
2023-05-01T11:23:25.399Z,6.50
2023-05-01T11:26:08.276Z,4.77
2023-05-01T11:28:40.332Z,5.13
2023-05-01T11:31:08.598Z,5.17
2023-05-01T11:33:36.879Z,6.97
2023-05-01T11:36:05.817Z,4.97
2023-05-01T11:38:33.943Z,6.17
2023-05-01T11:41:05.174Z,5.80
2023-05-01T11:43:33.568Z,10.30
2023-05-01T11:46:04.742Z,5.30
2023-05-01T11:48:33.411Z,4.77
2023-05-01T11:51:01.483Z,6.43
2023-05-01T11:53:30.768Z,3.93
2023-05-01T11:55:59.380Z,6.77
2023-05-01T11:58:36.530Z,4.33
2023-05-01T12:01:07.156Z,4.27
2023-05-01T12:03:45.555Z,4.07
2023-05-01T12:06:14.968Z,3.23
2023-05-01T12:08:51.651Z,3.20
2023-05-01T12:11:21.305Z,4.23
2023-05-01T12:13:51.184Z,4.53
2023-05-01T12:16:19.420Z,8.83
2023-05-01T12:18:48.226Z,3.23
2023-05-01T12:21:19.775Z,5.10
2023-05-01T12:23:48.118Z,3.40
2023-05-01T12:26:23.450Z,3.70
2023-05-01T12:29:00.726Z,2.93
2023-05-01T12:31:34.778Z,4.90
2023-05-01T12:34:08.908Z,2.87
2023-05-01T12:36:42.702Z,2.93
2023-05-01T12:39:16.141Z,3.60
2023-05-01T12:41:50.357Z,4.50
2023-05-01T12:44:30.688Z,2.80
2023-05-01T12:47:07.820Z,3.87
2023-05-01T12:49:40.588Z,2.53
2023-05-01T12:52:13.044Z,3.07
2023-05-01T12:54:46.281Z,4.53
2023-05-01T12:57:20.640Z,2.47
2023-05-01T13:00:05.768Z,2.83
2023-05-01T13:02:38.242Z,4.03
2023-05-01T13:05:15.123Z,3.13
2023-05-01T13:07:53.030Z,5.93
2023-05-01T13:10:33.869Z,2.53
2023-05-01T13:13:07.320Z,4.83
2023-05-01T13:15:40.978Z,4.00
2023-05-01T13:18:14.195Z,3.93
2023-05-01T13:20:46.030Z,4.37
2023-05-01T13:23:18.388Z,2.80
2023-05-01T13:25:56.953Z,3.70
2023-05-01T13:28:29.823Z,5.07
2023-05-01T13:31:03.195Z,7.17
2023-05-01T13:33:35.970Z,5.10
2023-05-01T13:36:21.608Z,2.73
2023-05-01T13:38:58.207Z,2.97
2023-05-01T13:41:31.006Z,3.17
2023-05-01T13:44:02.599Z,3.53
2023-05-01T13:46:36.794Z,3.87
2023-05-01T13:49:09.761Z,4.47
2023-05-01T13:51:48.782Z,3.53
2023-05-01T13:54:20.514Z,2.83
2023-05-01T13:56:52.497Z,4.13
2023-05-01T13:59:24.440Z,3.93
2023-05-01T14:01:57.681Z,5.50
2023-05-01T14:04:29.835Z,2.50
2023-05-01T14:07:01.711Z,4.40
2023-05-01T14:09:39.111Z,2.20
2023-05-01T14:12:11.389Z,2.63
2023-05-01T14:14:49.116Z,4.10
2023-05-01T14:17:26.493Z,2.50
2023-05-01T14:19:58.513Z,3.40
2023-05-01T14:22:35.543Z,3.33
2023-05-01T14:25:28.443Z,2.93
2023-05-01T14:28:02.491Z,4.10
2023-05-01T14:30:38.496Z,2.13
2023-05-01T14:33:13.352Z,3.40
2023-05-01T14:35:52.099Z,2.67
2023-05-01T14:38:38.544Z,2.27
2023-05-01T14:41:13.829Z,7.53
2023-05-01T14:43:46.948Z,4.47
2023-05-01T14:46:29.821Z,1.80
2023-05-01T14:49:04.012Z,2.17
2023-05-01T14:51:37.074Z,2.63
2023-05-01T14:54:12.404Z,2.97
2023-05-01T14:56:46.512Z,3.67
2023-05-01T14:59:18.601Z,4.33
2023-05-01T15:01:50.483Z,3.50
2023-05-01T15:04:24.319Z,3.23
2023-05-01T15:06:56.050Z,5.27
2023-05-01T15:09:27.837Z,1.80
2023-05-01T15:11:59.708Z,3.77
2023-05-01T15:14:31.575Z,4.30
2023-05-01T15:17:03.602Z,2.60
2023-05-01T15:19:37.324Z,2.37
2023-05-01T15:22:09.186Z,6.50
2023-05-01T15:24:40.826Z,2.00
2023-05-01T15:27:13.081Z,4.80
2023-05-01T15:29:44.668Z,2.37
2023-05-01T15:32:16.735Z,4.25
2023-05-01T15:34:55.092Z,2.15
2023-05-01T15:37:27.085Z,3.03
2023-05-01T15:39:59.457Z,6.50
2023-05-01T15:42:32.858Z,14.20
2023-05-01T15:45:05.760Z,15.70
2023-05-01T15:47:38.059Z,2.17
2023-05-01T15:50:14.042Z,3.23
2023-05-01T15:52:46.599Z,2.70
2023-05-01T15:55:21.637Z,1.47
2023-05-01T15:57:53.314Z,1.60
2023-05-01T16:00:25.358Z,1.70
2023-05-01T16:02:57.129Z,1.57
2023-05-01T16:05:31.209Z,2.20
2023-05-01T16:08:06.714Z,4.07
2023-05-01T16:10:38.669Z,3.23
2023-05-01T16:13:12.749Z,1.47
2023-05-01T16:15:44.382Z,1.43
2023-05-01T16:18:24.323Z,1.57
2023-05-01T16:20:57.966Z,2.30
2023-05-01T16:23:30.954Z,1.40
2023-05-01T16:26:02.913Z,1.40
2023-05-01T16:28:37.396Z,1.80
2023-05-01T16:31:26.612Z,1.40
2023-05-01T16:33:58.929Z,1.33
2023-05-01T16:36:32.328Z,1.70
2023-05-01T16:39:04.187Z,1.53
2023-05-01T16:41:43.211Z,2.50
2023-05-01T16:44:16.186Z,2.10
2023-05-01T16:46:54.514Z,1.47
2023-05-01T16:49:28.233Z,3.17
2023-05-01T16:52:04.018Z,1.77
2023-05-01T16:54:36.605Z,1.33
2023-05-01T16:57:08.209Z,1.37
2023-05-01T16:59:40.094Z,1.17
2023-05-01T17:02:13.044Z,1.60
2023-05-01T17:04:45.559Z,2.73
2023-05-01T17:07:19.366Z,1.83
2023-05-01T17:09:51.271Z,2.37
2023-05-01T17:12:23.327Z,2.17
2023-05-01T17:14:55.165Z,1.50
2023-05-01T17:17:26.904Z,1.77
2023-05-01T17:19:59.179Z,2.43
2023-05-01T17:22:32.437Z,1.40
2023-05-01T17:25:04.296Z,2.53
2023-05-01T17:27:37.615Z,2.47
2023-05-01T17:30:12.201Z,1.70
2023-05-01T17:32:44.149Z,3.20
2023-05-01T17:35:19.008Z,1.93
2023-05-01T17:37:52.007Z,2.33
2023-05-01T17:40:24.334Z,2.10
2023-05-01T17:42:56.162Z,1.93
2023-05-01T17:45:28.128Z,3.20
2023-05-01T17:48:00.710Z,2.20
2023-05-01T17:50:32.392Z,2.57
2023-05-01T17:53:05.300Z,2.07
2023-05-01T17:55:38.830Z,1.67
2023-05-01T17:58:10.396Z,4.43
2023-05-01T18:00:42.479Z,3.03
2023-05-01T18:03:14.162Z,2.00
2023-05-01T18:05:45.943Z,1.70
2023-05-01T18:08:19.121Z,3.07
2023-05-01T18:10:51.070Z,2.30
2023-05-01T18:13:27.801Z,5.23
2023-05-01T18:15:59.606Z,2.33
2023-05-01T18:18:31.616Z,2.00
2023-05-01T18:21:03.553Z,1.53
2023-05-01T18:23:37.403Z,2.27
2023-05-01T18:26:09.062Z,1.60
2023-05-01T18:28:40.985Z,1.70
2023-05-01T18:31:14.237Z,2.67
2023-05-01T18:33:47.094Z,2.93
2023-05-01T18:36:18.971Z,2.77
2023-05-01T18:38:52.084Z,2.10
2023-05-01T18:41:26.355Z,1.83
2023-05-01T18:44:01.247Z,3.40
2023-05-01T18:46:33.183Z,2.47
2023-05-01T18:49:05.035Z,2.50
2023-05-01T18:51:37.277Z,3.67
2023-05-01T18:54:10.289Z,3.90
2023-05-01T18:56:42.127Z,2.13
2023-05-01T18:59:13.959Z,2.33
2023-05-01T19:01:45.979Z,3.63
2023-05-01T19:04:19.077Z,1.83
2023-05-01T19:06:50.822Z,2.20
2023-05-01T19:09:24.214Z,2.97
2023-05-01T19:11:56.227Z,2.17
2023-05-01T19:14:28.066Z,2.07
2023-05-01T19:16:59.941Z,2.23
2023-05-01T19:19:31.914Z,2.67
2023-05-01T19:22:05.921Z,2.20
2023-05-01T19:24:39.005Z,2.37
2023-05-01T19:27:11.667Z,2.10
2023-05-01T19:29:43.276Z,5.00
2023-05-01T19:32:15.335Z,2.00
2023-05-01T19:34:46.942Z,2.73
2023-05-01T19:37:18.808Z,2.53
2023-05-01T19:39:51.787Z,2.60
2023-05-01T19:42:23.770Z,1.73
2023-05-01T19:44:55.575Z,2.07
2023-05-01T19:47:27.491Z,1.97
2023-05-01T19:49:59.292Z,1.90
2023-05-01T19:52:31.232Z,2.47
2023-05-01T19:55:08.102Z,2.20
2023-05-01T19:57:39.780Z,2.47
2023-05-01T20:00:14.360Z,2.47
2023-05-01T20:02:47.502Z,2.50
2023-05-01T20:05:19.734Z,2.63
2023-05-01T20:07:51.539Z,3.53
2023-05-01T20:10:25.260Z,2.57
2023-05-01T20:12:56.962Z,3.10
2023-05-01T20:15:28.864Z,2.63
2023-05-01T20:18:01.282Z,2.10
2023-05-01T20:20:34.957Z,2.30
2023-05-01T20:23:18.838Z,3.50
2023-05-01T20:25:53.350Z,2.23
2023-05-01T20:28:25.797Z,2.40
2023-05-01T20:30:57.609Z,2.80
2023-05-01T20:33:29.486Z,2.20
2023-05-01T20:36:01.590Z,2.07
2023-05-01T20:38:33.182Z,3.40
2023-05-01T20:41:06.115Z,2.70
2023-05-01T20:43:38.313Z,3.50
2023-05-01T20:46:10.058Z,3.40
2023-05-01T20:48:41.925Z,4.67
2023-05-01T20:51:13.850Z,6.87
2023-05-01T20:53:45.764Z,3.47
2023-05-01T20:56:18.750Z,3.90
2023-05-01T20:58:50.618Z,4.60
2023-05-01T21:01:22.523Z,5.83
2023-05-01T21:03:54.603Z,4.13
2023-05-01T21:06:26.907Z,3.83
2023-05-01T21:08:59.692Z,4.13
2023-05-01T21:11:32.905Z,5.30
2023-05-01T21:14:04.806Z,5.40
2023-05-01T21:16:39.840Z,3.47
2023-05-01T21:19:13.838Z,3.87
2023-05-01T21:21:45.734Z,6.97
2023-05-01T21:24:24.178Z,4.40
2023-05-01T21:26:58.528Z,6.17
2023-05-01T21:29:30.912Z,7.87
2023-05-01T21:32:04.169Z,6.10
2023-05-01T21:34:36.276Z,6.10
2023-05-01T21:37:08.707Z,4.60
2023-05-01T21:39:41.560Z,6.13
2023-05-01T21:42:15.492Z,7.50
2023-05-01T21:44:47.288Z,5.13
2023-05-01T21:47:19.976Z,5.47
2023-05-01T21:49:56.861Z,8.30
2023-05-01T21:52:29.605Z,6.97
2023-05-01T21:55:01.790Z,6.20
2023-05-01T21:57:38.180Z,4.73
2023-05-01T22:00:12.288Z,5.90
2023-05-01T22:02:47.460Z,6.37
2023-05-01T22:05:22.459Z,7.43
2023-05-01T22:07:54.885Z,7.57
2023-05-01T22:10:26.484Z,6.83
2023-05-01T22:12:59.639Z,5.37
2023-05-01T22:15:31.407Z,5.23
2023-05-01T22:18:03.357Z,4.93
2023-05-01T22:20:35.031Z,5.70
2023-05-01T22:23:07.452Z,6.13
2023-05-01T22:25:39.382Z,9.23
2023-05-01T22:28:12.567Z,4.77
2023-05-01T22:30:44.458Z,3.90
2023-05-01T22:33:16.470Z,4.47
2023-05-01T22:35:48.183Z,5.40
2023-05-01T22:38:19.969Z,6.77
2023-05-01T22:40:51.832Z,4.00
2023-05-01T22:43:25.971Z,3.47
2023-05-01T22:45:57.704Z,7.57
2023-05-01T22:48:29.613Z,4.00
2023-05-01T22:51:01.450Z,4.13
2023-05-01T22:53:33.319Z,6.47
2023-05-01T22:56:05.172Z,6.20
2023-05-01T22:58:38.504Z,3.67
2023-05-01T23:01:10.498Z,5.90
2023-05-01T23:03:42.279Z,3.63
2023-05-01T23:06:13.971Z,6.57
2023-05-01T23:08:45.889Z,4.70
2023-05-01T23:11:21.874Z,3.90
2023-05-01T23:13:55.403Z,3.37
2023-05-01T23:16:27.558Z,4.83
2023-05-01T23:19:00.774Z,3.77
2023-05-01T23:21:32.623Z,4.83
2023-05-01T23:24:06.413Z,6.77
2023-05-01T23:26:42.038Z,4.30
2023-05-01T23:29:15.935Z,3.07
2023-05-01T23:31:51.771Z,3.50
2023-05-01T23:34:23.470Z,5.13
2023-05-01T23:36:55.293Z,3.27
2023-05-01T23:39:27.145Z,3.07
2023-05-01T23:41:59.078Z,3.90
2023-05-01T23:44:32.326Z,3.73
2023-05-01T23:47:04.554Z,3.40
2023-05-01T23:49:36.214Z,2.93
2023-05-01T23:52:08.313Z,3.30
2023-05-01T23:54:40.096Z,6.00
2023-05-01T23:57:11.979Z,3.10
2023-05-01T23:59:45.127Z,5.10
